Time;durP1;ratioP1;P1;durP2;ratioP2;P2;SDS_P1;SDS_P2;PMS_P1;PMS_P2;Temp;Humidity;BMP_temperature;BMP_pressure;BME280_temperature;BME280_humidity;BME280_pressure;Samples;Min_cycle;Max_cycle;Signal;HPM_P1;HPM_P2
2021/04/10 00:01:19;;;;;;;16.73;9.53;;;9.90;99.90;;;;;;5068597;28;20734;-80
2021/04/10 00:03:46;;;;;;;18.37;10.63;;;9.90;99.90;;;;;;5060147;28;20204;-79
2021/04/10 00:06:13;;;;;;;17.03;10.47;;;9.80;99.90;;;;;;5065003;28;20671;-80
2021/04/10 00:08:39;;;;;;;16.07;10.23;;;9.80;99.90;;;;;;5067219;28;20286;-80
2021/04/10 00:11:06;;;;;;;14.90;10.03;;;9.70;99.90;;;;;;5069100;28;20224;-79
2021/04/10 00:13:32;;;;;;;16.20;10.20;;;9.70;99.90;;;;;;5062973;28;20204;-80
2021/04/10 00:15:59;;;;;;;16.83;10.30;;;9.70;99.90;;;;;;5064875;28;20228;-79
2021/04/10 00:18:26;;;;;;;14.20;9.50;;;9.80;99.90;;;;;;5065624;28;20313;-79
2021/04/10 00:20:52;;;;;;;16.67;10.57;;;9.80;99.90;;;;;;5068698;28;20226;-80
2021/04/10 00:23:19;;;;;;;16.43;10.73;;;9.80;99.90;;;;;;5065611;28;20195;-80
2021/04/10 00:25:45;;;;;;;20.57;10.03;;;9.90;99.90;;;;;;5072397;28;20288;-80
2021/04/10 00:28:11;;;;;;;18.40;10.07;;;10.00;99.90;;;;;;5070551;28;20628;-80
2021/04/10 00:30:38;;;;;;;17.10;10.03;;;9.80;99.90;;;;;;5068768;28;20219;-80
2021/04/10 00:33:04;;;;;;;15.20;9.60;;;9.90;99.90;;;;;;5071952;28;20561;-80
2021/04/10 00:35:32;;;;;;;15.23;9.50;;;10.00;99.90;;;;;;5070768;28;20235;-79
2021/04/10 00:37:58;;;;;;;16.97;9.83;;;10.00;99.90;;;;;;5067010;28;20287;-79
2021/04/10 00:40:25;;;;;;;14.47;10.53;;;10.00;99.90;;;;;;5070547;28;20293;-79
2021/04/10 00:42:51;;;;;;;13.10;9.30;;;10.00;99.90;;;;;;5068332;28;20199;-79
2021/04/10 00:45:20;;;;;;;14.03;9.77;;;10.10;99.90;;;;;;5071860;28;20202;-80
2021/04/10 00:47:47;;;;;;;16.87;9.33;;;10.10;99.90;;;;;;5065781;28;20206;-79
2021/04/10 00:50:13;;;;;;;20.00;10.03;;;10.10;99.90;;;;;;5066723;28;20199;-80
2021/04/10 00:52:42;;;;;;;15.97;9.57;;;10.10;99.90;;;;;;5071025;28;20671;-79
2021/04/10 00:55:11;;;;;;;17.70;10.80;;;10.20;99.90;;;;;;5064363;28;20285;-79
2021/04/10 00:57:37;;;;;;;15.37;10.23;;;10.30;99.90;;;;;;5055836;28;20689;-79
2021/04/10 01:00:05;;;;;;;15.33;9.90;;;10.30;99.90;;;;;;5075214;28;20663;-80
2021/04/10 01:02:32;;;;;;;20.07;10.53;;;10.40;99.90;;;;;;5074731;28;20632;-80
2021/04/10 01:04:58;;;;;;;16.60;10.03;;;10.30;99.90;;;;;;5074561;28;20199;-80
2021/04/10 01:07:25;;;;;;;15.17;9.60;;;10.30;99.90;;;;;;5075391;28;20202;-79
2021/04/10 01:09:53;;;;;;;13.53;9.23;;;10.30;99.90;;;;;;5074826;28;20202;-79
2021/04/10 01:12:30;;;;;;;18.60;10.07;;;10.10;99.90;;;;;;5075157;28;20289;-79
2021/04/10 01:15:07;;;;;;;14.27;9.80;;;9.80;99.90;;;;;;5074317;28;20235;-80
2021/04/10 01:17:36;;;;;;;15.87;9.67;;;9.70;99.90;;;;;;5074629;28;20197;-79
2021/04/10 01:20:16;;;;;;;18.47;10.87;;;9.50;99.90;;;;;;5074928;28;20224;-79
2021/04/10 01:23:25;;;;;;;16.97;11.13;;;9.30;99.90;;;;;;5074681;28;20204;-79
2021/04/10 01:26:08;;;;;;;16.70;10.50;;;9.30;99.90;;;;;;5074678;28;20663;-79
2021/04/10 01:28:47;;;;;;;18.37;9.97;;;9.00;99.90;;;;;;5074697;28;20248;-79
2021/04/10 01:31:16;;;;;;;15.37;10.40;;;8.90;99.90;;;;;;5074283;28;20729;-79
2021/04/10 01:33:48;;;;;;;15.73;10.53;;;9.00;99.90;;;;;;5073700;28;20634;-79
2021/04/10 01:36:19;;;;;;;20.93;11.63;;;9.20;99.90;;;;;;5074454;28;20292;-79
2021/04/10 01:38:49;;;;;;;21.97;11.43;;;9.30;99.90;;;;;;5074636;28;20206;-79
2021/04/10 01:41:17;;;;;;;19.30;11.37;;;9.10;99.90;;;;;;5074305;28;20289;-80
2021/04/10 01:43:46;;;;;;;19.67;11.33;;;9.00;99.90;;;;;;5073631;28;20188;-79
2021/04/10 01:46:13;;;;;;;17.03;11.60;;;8.80;99.90;;;;;;5074498;28;20240;-80
2021/04/10 01:48:44;;;;;;;23.00;12.33;;;8.60;99.90;;;;;;5074270;28;20200;-79
2021/04/10 01:51:11;;;;;;;19.30;11.57;;;8.80;99.90;;;;;;5074572;28;20240;-80
2021/04/10 01:53:39;;;;;;;17.97;11.37;;;8.80;99.90;;;;;;5073791;28;20778;-80
2021/04/10 01:56:07;;;;;;;21.57;12.03;;;8.90;99.90;;;;;;5073554;28;20194;-80
2021/04/10 01:58:35;;;;;;;17.17;11.50;;;8.80;99.90;;;;;;5074148;28;20202;-79
2021/04/10 02:01:05;;;;;;;23.27;12.50;;;8.80;99.90;;;;;;5073567;28;20201;-80
2021/04/10 02:03:32;;;;;;;20.47;12.30;;;8.90;99.90;;;;;;5073919;28;20221;-79
2021/04/10 02:05:59;;;;;;;18.23;12.00;;;8.90;99.90;;;;;;5073736;28;20193;-80
2021/04/10 02:08:26;;;;;;;20.80;11.37;;;8.80;99.90;;;;;;5074085;28;20632;-80
2021/04/10 02:10:53;;;;;;;19.03;11.77;;;8.60;99.90;;;;;;5073869;28;20197;-80
2021/04/10 02:13:21;;;;;;;18.80;11.80;;;8.60;99.90;;;;;;5073387;28;20545;-80
2021/04/10 02:15:50;;;;;;;19.30;10.77;;;8.60;99.90;;;;;;5073840;28;20229;-79
2021/04/10 02:18:19;;;;;;;18.63;10.77;;;8.60;99.90;;;;;;5073501;28;20296;-80
2021/04/10 02:20:45;;;;;;;16.67;10.67;;;8.70;99.90;;;;;;5073504;28;20203;-80
2021/04/10 02:23:13;;;;;;;21.00;10.37;;;8.70;99.90;;;;;;5073412;28;20209;-80
2021/04/10 02:25:39;;;;;;;17.90;11.70;;;8.60;99.90;;;;;;5073623;28;20201;-80
2021/04/10 02:28:06;;;;;;;23.23;11.47;;;8.60;99.90;;;;;;5073468;28;20296;-79
2021/04/10 02:30:33;;;;;;;23.57;11.30;;;8.50;99.90;;;;;;5072994;28;20197;-80
2021/04/10 02:33:03;;;;;;;18.37;11.63;;;8.40;99.90;;;;;;5073854;28;20288;-80
2021/04/10 02:35:35;;;;;;;17.97;11.17;;;8.40;99.90;;;;;;5072650;28;20215;-80
2021/04/10 02:38:02;;;;;;;17.27;10.37;;;8.30;99.90;;;;;;5073774;28;20209;-79
2021/04/10 02:40:31;;;;;;;20.70;11.73;;;8.30;99.90;;;;;;5072769;28;20201;-80
2021/04/10 02:43:00;;;;;;;18.50;10.80;;;8.40;99.90;;;;;;5073065;28;20665;-80
2021/04/10 02:45:28;;;;;;;20.13;10.83;;;8.30;99.90;;;;;;5073167;28;20294;-80
2021/04/10 02:47:57;;;;;;;24.37;11.60;;;8.30;99.90;;;;;;5072990;28;20284;-79
2021/04/10 02:50:25;;;;;;;22.40;12.23;;;8.30;99.90;;;;;;5073073;28;20197;-80
2021/04/10 02:52:56;;;;;;;30.27;12.87;;;8.20;99.90;;;;;;5073187;28;20276;-80
2021/04/10 02:55:29;;;;;;;24.33;12.33;;;8.10;99.90;;;;;;5072662;28;20757;-79
2021/04/10 02:58:00;;;;;;;29.10;13.20;;;8.10;99.90;;;;;;5053276;28;20203;-80
2021/04/10 03:03:32;;;;;;;29.23;15.03;;;8.10;99.90;;;;;;5112512;22;20319;-76
2021/04/10 03:06:02;;;;;;;32.17;15.20;;;7.90;99.90;;;;;;5088716;28;20203;-79
2021/04/10 03:08:29;;;;;;;24.90;14.10;;;7.80;99.90;;;;;;5092789;28;20200;-81
2021/04/10 03:10:56;;;;;;;30.70;15.67;;;7.80;99.90;;;;;;5092670;28;20210;-77
2021/04/10 03:13:24;;;;;;;35.40;16.17;;;7.90;99.90;;;;;;5092833;28;20587;-77
2021/04/10 03:15:52;;;;;;;34.53;17.07;;;7.80;99.90;;;;;;5092222;28;20222;-82
2021/04/10 03:18:19;;;;;;;33.50;17.33;;;7.70;99.90;;;;;;5092626;28;20196;-77
2021/04/10 03:20:45;;;;;;;29.30;18.07;;;7.80;99.90;;;;;;5092637;28;20311;-77
2021/04/10 03:23:12;;;;;;;35.87;18.10;;;7.80;99.90;;;;;;5092680;28;20207;-76
2021/04/10 03:25:40;;;;;;;39.77;18.30;;;7.70;99.90;;;;;;5092119;28;20311;-77
2021/04/10 03:28:07;;;;;;;36.17;19.17;;;7.70;99.90;;;;;;5092468;28;20253;-76
2021/04/10 03:30:35;;;;;;;40.97;19.30;;;7.70;99.90;;;;;;5092509;28;20669;-76
2021/04/10 03:33:02;;;;;;;40.33;19.53;;;7.70;99.90;;;;;;5092205;28;20204;-76
2021/04/10 03:35:29;;;;;;;40.23;19.03;;;7.60;99.90;;;;;;5092259;28;20224;-78
2021/04/10 03:37:56;;;;;;;36.47;19.37;;;7.50;99.90;;;;;;5092370;28;20218;-79
2021/04/10 03:40:22;;;;;;;37.17;19.10;;;7.50;99.90;;;;;;5092107;28;20212;-77
2021/04/10 03:42:50;;;;;;;39.03;20.87;;;7.50;99.90;;;;;;5092428;28;20674;-79
2021/04/10 03:45:19;;;;;;;43.00;20.13;;;7.50;99.90;;;;;;5092265;28;20202;-79
2021/04/10 03:47:46;;;;;;;40.83;21.00;;;7.50;99.90;;;;;;5092346;28;20646;-78
2021/04/10 03:50:13;;;;;;;41.07;20.77;;;7.40;99.90;;;;;;5092207;28;20198;-76
2021/04/10 03:52:39;;;;;;;38.20;20.73;;;7.40;99.90;;;;;;5092533;28;20350;-80
2021/04/10 03:55:07;;;;;;;38.43;20.13;;;7.40;99.90;;;;;;5092027;28;20228;-79
2021/04/10 03:57:35;;;;;;;41.70;21.30;;;7.40;99.90;;;;;;5095193;28;20204;-78
2021/04/10 04:00:04;;;;;;;38.27;21.37;;;7.30;99.90;;;;;;5095976;28;20195;-76
2021/04/10 04:02:30;;;;;;;38.43;21.10;;;7.30;99.90;;;;;;5096736;28;20198;-76
2021/04/10 04:04:57;;;;;;;41.40;21.40;;;7.40;99.90;;;;;;5096069;28;20228;-78
2021/04/10 04:07:23;;;;;;;39.00;21.30;;;7.50;99.90;;;;;;5096179;28;20684;-77
2021/04/10 04:09:49;;;;;;;41.77;21.73;;;7.40;99.90;;;;;;5095851;28;20676;-76
2021/04/10 04:12:16;;;;;;;42.57;20.97;;;7.40;99.90;;;;;;5095798;28;20203;-79
2021/04/10 04:14:42;;;;;;;40.03;21.30;;;7.30;99.90;;;;;;5095594;28;20295;-77
2021/04/10 04:17:09;;;;;;;43.20;21.73;;;7.40;99.90;;;;;;5096140;28;20269;-77
2021/04/10 04:19:36;;;;;;;38.40;20.97;;;7.40;99.90;;;;;;5095830;28;20227;-76
2021/04/10 04:22:03;;;;;;;40.57;21.13;;;7.30;99.90;;;;;;5095932;28;20245;-81
2021/04/10 04:24:30;;;;;;;46.60;22.73;;;7.40;99.90;;;;;;5095689;28;20200;-77
2021/04/10 04:26:56;;;;;;;46.23;22.03;;;7.40;99.90;;;;;;5095679;28;20288;-79
2021/04/10 04:29:23;;;;;;;40.30;21.33;;;7.40;99.90;;;;;;5095088;28;20661;-77
2021/04/10 04:31:49;;;;;;;45.43;22.80;;;7.40;99.90;;;;;;5095767;28;20279;-77
2021/04/10 04:34:17;;;;;;;44.17;21.70;;;7.30;99.90;;;;;;5095789;28;20224;-80
2021/04/10 04:36:43;;;;;;;40.53;21.93;;;7.30;99.90;;;;;;5095904;28;20319;-77
2021/04/10 04:39:09;;;;;;;44.00;22.10;;;7.30;99.90;;;;;;5095524;28;20200;-82
2021/04/10 04:41:35;;;;;;;44.00;23.77;;;7.30;99.90;;;;;;5095598;28;20205;-82
2021/04/10 04:44:02;;;;;;;43.60;22.13;;;7.30;99.90;;;;;;5096299;28;20294;-77
2021/04/10 04:46:28;;;;;;;42.97;21.80;;;7.40;99.90;;;;;;5094884;28;20242;-78
2021/04/10 04:48:55;;;;;;;43.37;22.93;;;7.50;99.90;;;;;;5095105;28;20207;-76
2021/04/10 04:51:23;;;;;;;46.83;22.70;;;7.50;99.90;;;;;;5095286;28;20250;-76
2021/04/10 04:53:50;;;;;;;43.37;22.57;;;7.50;99.90;;;;;;5095033;28;20212;-78
2021/04/10 04:56:16;;;;;;;39.80;22.13;;;7.60;99.90;;;;;;5094245;28;20192;-76
2021/04/10 04:58:42;;;;;;;41.47;21.73;;;7.60;99.90;;;;;;5095516;28;20279;-77
2021/04/10 05:01:09;;;;;;;48.83;22.27;;;7.60;99.90;;;;;;5094913;28;20203;-76
2021/04/10 05:03:35;;;;;;;43.47;22.27;;;7.60;99.90;;;;;;5095226;28;20568;-77
2021/04/10 05:06:01;;;;;;;43.33;22.53;;;7.50;99.90;;;;;;5095212;28;20207;-77
2021/04/10 05:08:29;;;;;;;42.43;21.57;;;7.50;99.90;;;;;;5093644;28;20200;-78
2021/04/10 05:10:55;;;;;;;40.60;21.70;;;7.50;99.90;;;;;;5094898;28;20228;-77
2021/04/10 05:13:21;;;;;;;52.03;22.07;;;7.60;99.90;;;;;;5095166;28;20521;-77
2021/04/10 05:15:48;;;;;;;39.00;21.50;;;7.50;99.90;;;;;;5094536;28;20217;-78
2021/04/10 05:18:14;;;;;;;41.33;20.83;;;7.40;99.90;;;;;;5094919;28;20679;-77
2021/04/10 05:20:43;;;;;;;40.30;21.40;;;7.50;99.90;;;;;;5094430;28;20661;-77
2021/04/10 05:23:09;;;;;;;43.60;20.63;;;7.50;99.90;;;;;;5094968;28;20218;-77
2021/04/10 05:25:37;;;;;;;42.00;21.20;;;7.60;99.90;;;;;;5094336;28;20675;-81
2021/04/10 05:28:03;;;;;;;46.97;20.63;;;7.70;99.90;;;;;;5094862;28;20189;-76
2021/04/10 05:30:29;;;;;;;43.13;21.63;;;7.80;99.90;;;;;;5094891;28;20203;-77
2021/04/10 05:32:56;;;;;;;39.50;21.47;;;7.90;99.90;;;;;;5094340;28;20544;-79
2021/04/10 05:35:22;;;;;;;40.40;21.40;;;8.00;99.90;;;;;;5094598;28;20229;-79
2021/04/10 05:37:48;;;;;;;47.37;21.97;;;7.90;99.90;;;;;;5094266;28;20199;-79
2021/04/10 05:40:15;;;;;;;40.60;21.93;;;7.90;99.90;;;;;;5094664;28;20293;-77
2021/04/10 05:42:43;;;;;;;42.63;22.87;;;7.90;99.90;;;;;;5094573;28;20207;-80
2021/04/10 05:45:11;;;;;;;48.40;23.93;;;7.70;99.90;;;;;;5094556;28;20209;-80
2021/04/10 05:47:38;;;;;;;39.17;22.90;;;7.70;99.90;;;;;;5094217;28;20674;-79
2021/04/10 05:50:05;;;;;;;41.57;22.90;;;7.60;99.90;;;;;;5094569;28;20542;-77
2021/04/10 05:52:32;;;;;;;51.23;24.60;;;7.60;99.90;;;;;;5093869;28;20205;-77
2021/04/10 05:54:58;;;;;;;47.00;22.40;;;7.60;99.90;;;;;;5094342;28;20294;-78
2021/04/10 05:57:25;;;;;;;43.30;21.70;;;7.50;99.90;;;;;;5093826;28;20674;-77
2021/04/10 05:59:52;;;;;;;42.97;20.97;;;7.50;99.90;;;;;;5093997;28;20200;-82
2021/04/10 06:02:18;;;;;;;43.53;21.00;;;7.50;99.90;;;;;;5093995;28;20676;-77
2021/04/10 06:04:45;;;;;;;40.27;20.47;;;7.50;99.90;;;;;;5090558;28;20264;-78
2021/04/10 06:07:11;;;;;;;39.97;19.93;;;7.50;99.90;;;;;;5093202;28;20295;-80
2021/04/10 06:09:37;;;;;;;43.87;20.57;;;7.60;99.90;;;;;;5092869;28;20224;-79
2021/04/10 06:12:05;;;;;;;42.43;20.80;;;7.40;99.90;;;;;;5092506;28;20227;-83
2021/04/10 06:14:31;;;;;;;45.93;21.07;;;7.50;99.90;;;;;;5093789;28;20582;-80
2021/04/10 06:16:58;;;;;;;43.83;21.17;;;7.50;99.90;;;;;;5093205;28;20334;-79
2021/04/10 06:19:25;;;;;;;46.13;21.33;;;7.60;99.90;;;;;;5093510;28;20291;-80
2021/04/10 06:21:51;;;;;;;40.43;20.03;;;7.70;99.90;;;;;;5092930;28;20633;-79
2021/04/10 06:24:20;;;;;;;47.47;20.33;;;7.70;99.90;;;;;;5082288;28;20308;-83
2021/04/10 06:26:47;;;;;;;41.63;20.17;;;7.60;99.90;;;;;;5086245;28;20207;-80
2021/04/10 06:29:13;;;;;;;39.60;20.27;;;7.60;99.90;;;;;;5072840;28;20205;-84
2021/04/10 06:31:41;;;;;;;42.20;19.73;;;7.70;99.90;;;;;;5088154;28;20205;-79
2021/04/10 06:34:08;;;;;;;43.97;22.07;;;7.80;99.90;;;;;;5077489;28;20197;-82
2021/04/10 06:36:35;;;;;;;42.10;21.37;;;7.70;99.90;;;;;;5074840;28;20221;-82
2021/04/10 06:39:02;;;;;;;41.73;21.37;;;7.70;99.90;;;;;;5083658;28;20191;-78
2021/04/10 06:41:29;;;;;;;42.57;21.53;;;7.60;99.90;;;;;;5089354;28;20228;-78
2021/04/10 06:43:57;;;;;;;49.37;24.70;;;7.70;99.90;;;;;;5074610;28;20225;-79
2021/04/10 06:46:24;;;;;;;47.20;24.70;;;7.90;99.90;;;;;;5072674;28;20239;-83
2021/04/10 06:48:56;;;;;;;51.40;26.63;;;7.90;99.90;;;;;;5088296;28;20283;-79
2021/04/10 06:51:24;;;;;;;50.27;24.17;;;8.00;99.90;;;;;;5092482;28;20199;-76
2021/04/10 06:53:53;;;;;;;43.13;21.97;;;8.00;99.90;;;;;;5092103;28;20658;-80
2021/04/10 06:56:23;;;;;;;51.13;23.37;;;8.20;99.90;;;;;;5091622;28;20264;-80
2021/04/10 06:58:56;;;;;;;44.77;21.83;;;8.10;99.90;;;;;;5092339;28;20265;-77
2021/04/10 07:01:28;;;;;;;41.17;21.87;;;8.00;99.90;;;;;;5091879;28;20189;-75
2021/04/10 07:03:54;;;;;;;51.00;22.10;;;7.90;99.90;;;;;;5090694;28;20642;-77
2021/04/10 07:06:21;;;;;;;44.43;21.10;;;7.90;99.90;;;;;;5088586;28;20278;-77
2021/04/10 07:08:48;;;;;;;46.43;21.03;;;7.80;99.90;;;;;;5087623;28;20191;-77
2021/04/10 07:11:16;;;;;;;44.63;20.60;;;7.90;99.90;;;;;;5084608;28;20599;-78
2021/04/10 07:13:43;;;;;;;45.93;20.30;;;7.80;99.90;;;;;;5089879;28;20285;-80
2021/04/10 07:16:10;;;;;;;45.40;21.80;;;7.90;99.90;;;;;;5090912;28;20308;-81
2021/04/10 07:18:37;;;;;;;41.40;20.70;;;7.90;99.90;;;;;;5090623;28;20207;-79
2021/04/10 07:21:14;;;;;;;46.63;20.53;;;7.90;99.90;;;;;;5091842;28;20283;-78
2021/04/10 07:23:49;;;;;;;39.40;21.67;;;8.00;99.90;;;;;;5088366;28;20223;-78
2021/04/10 07:26:17;;;;;;;45.70;21.67;;;8.00;99.90;;;;;;5088972;28;20270;-78
2021/04/10 07:28:44;;;;;;;45.17;22.13;;;7.90;99.90;;;;;;5091327;28;20200;-79
2021/04/10 07:31:12;;;;;;;46.33;22.07;;;7.90;99.90;;;;;;5090658;28;20282;-78
2021/04/10 07:33:40;;;;;;;57.13;23.53;;;7.90;99.90;;;;;;5094032;28;20644;-77
2021/04/10 07:36:08;;;;;;;52.40;23.43;;;7.90;99.90;;;;;;5094383;28;20242;-79
2021/04/10 07:38:37;;;;;;;49.87;23.07;;;7.90;99.90;;;;;;5095498;28;20630;-79
2021/04/10 07:41:15;;;;;;;46.83;23.30;;;8.00;99.90;;;;;;5088365;28;20269;-79
2021/04/10 07:43:43;;;;;;;46.60;21.97;;;8.10;99.90;;;;;;5084491;28;20299;-81
2021/04/10 07:46:15;;;;;;;47.17;22.57;;;8.10;99.90;;;;;;5088301;28;20257;-77
2021/04/10 07:48:59;;;;;;;39.77;21.23;;;7.90;99.90;;;;;;5089376;28;20206;-80
2021/04/10 07:51:27;;;;;;;49.43;22.23;;;8.00;99.90;;;;;;5092804;28;20204;-79
2021/04/10 07:53:53;;;;;;;51.17;22.87;;;7.90;99.90;;;;;;5095785;28;20193;-79
2021/04/10 07:56:21;;;;;;;52.63;21.67;;;7.90;99.90;;;;;;5095578;28;20303;-79
2021/04/10 07:58:47;;;;;;;46.63;21.43;;;7.90;99.90;;;;;;5094885;28;20201;-78
2021/04/10 08:01:16;;;;;;;48.93;22.13;;;7.90;99.90;;;;;;5095214;28;20197;-78
2021/04/10 08:03:43;;;;;;;43.57;22.63;;;8.00;99.90;;;;;;5095375;28;20208;-77
2021/04/10 08:06:17;;;;;;;50.57;23.17;;;8.10;99.90;;;;;;5095751;28;20298;-78
2021/04/10 08:08:55;;;;;;;49.73;21.63;;;8.10;99.90;;;;;;5095386;28;20265;-78
2021/04/10 08:11:35;;;;;;;44.37;21.63;;;8.00;99.90;;;;;;5092187;28;20338;-78
2021/04/10 08:14:03;;;;;;;48.03;22.73;;;7.90;99.90;;;;;;5092431;28;20275;-77
2021/04/10 08:16:30;;;;;;;45.13;22.93;;;7.90;99.90;;;;;;5094484;28;20220;-80
2021/04/10 08:18:58;;;;;;;47.70;23.77;;;8.00;99.90;;;;;;5094110;28;20361;-79
2021/04/10 08:21:39;;;;;;;56.07;25.43;;;8.00;99.90;;;;;;5091676;28;20692;-79
2021/04/10 08:24:41;;;;;;;47.13;25.30;;;8.20;99.90;;;;;;5090235;28;20708;-79
2021/04/10 08:27:11;;;;;;;46.33;23.60;;;8.30;99.90;;;;;;5091067;28;20517;-79
2021/04/10 08:29:39;;;;;;;56.90;24.93;;;8.30;99.90;;;;;;5094696;28;20236;-79
2021/04/10 08:32:07;;;;;;;55.57;26.23;;;8.40;99.90;;;;;;5093344;28;20204;-78
2021/04/10 08:34:33;;;;;;;49.03;24.87;;;8.40;99.90;;;;;;5093352;28;20307;-78
2021/04/10 08:37:02;;;;;;;47.63;24.93;;;8.20;99.90;;;;;;5094583;28;20196;-78
2021/04/10 08:39:32;;;;;;;48.73;24.03;;;8.20;99.90;;;;;;5093274;28;20213;-77
2021/04/10 08:42:00;;;;;;;52.47;24.30;;;8.20;99.90;;;;;;5095133;28;20241;-79
2021/04/10 08:44:33;;;;;;;48.07;24.17;;;8.30;99.90;;;;;;5093409;28;20289;-78
2021/04/10 08:47:00;;;;;;;50.77;24.27;;;8.40;99.90;;;;;;5094706;28;20268;-78
2021/04/10 08:49:29;;;;;;;51.93;25.17;;;8.50;99.90;;;;;;5095243;28;20287;-78
2021/04/10 08:52:01;;;;;;;52.00;25.10;;;8.50;99.90;;;;;;5094554;28;20201;-81
2021/04/10 08:54:31;;;;;;;55.00;25.50;;;8.40;99.90;;;;;;5095070;28;20206;-79
2021/04/10 08:56:58;;;;;;;49.83;24.47;;;8.50;99.90;;;;;;5093344;28;20205;-78
2021/04/10 08:59:24;;;;;;;50.73;23.97;;;8.40;99.90;;;;;;5094130;28;20288;-79
2021/04/10 09:02:09;;;;;;;50.77;25.83;;;8.60;99.90;;;;;;5094714;28;20208;-81
2021/04/10 09:04:55;;;;;;;51.17;25.27;;;8.60;99.90;;;;;;5094054;28;20246;-83
2021/04/10 09:08:04;;;;;;;55.03;26.47;;;8.60;99.90;;;;;;5092101;28;20307;-80
2021/04/10 09:10:47;;;;;;;50.80;26.80;;;8.50;99.90;;;;;;5094790;28;20289;-81
2021/04/10 09:13:26;;;;;;;51.47;26.80;;;8.60;99.90;;;;;;5095476;28;20305;-80
2021/04/10 09:16:32;;;;;;;54.00;28.57;;;8.60;99.90;;;;;;5095080;28;20238;-78
2021/04/10 09:19:04;;;;;;;50.07;27.13;;;8.60;99.90;;;;;;5068395;28;20191;-78
2021/04/10 09:21:37;;;;;;;56.47;28.10;;;8.70;99.90;;;;;;5075193;28;20224;-78
2021/04/10 09:24:23;;;;;;;54.57;28.13;;;8.70;99.90;;;;;;5079108;28;20298;-79
2021/04/10 09:27:06;;;;;;;52.13;27.33;;;8.70;99.90;;;;;;5095191;28;20293;-78
2021/04/10 09:29:45;;;;;;;52.97;26.67;;;8.70;99.90;;;;;;5095444;28;20209;-79
2021/04/10 09:32:13;;;;;;;55.43;27.40;;;8.80;99.90;;;;;;5095124;28;20196;-78
2021/04/10 09:34:57;;;;;;;54.83;28.60;;;8.70;99.90;;;;;;5095168;28;20288;-79
2021/04/10 09:37:53;;;;;;;53.23;27.13;;;8.80;99.90;;;;;;5095460;28;20204;-79
2021/04/10 09:40:25;;;;;;;52.67;27.80;;;8.80;99.90;;;;;;5096006;28;20200;-79
2021/04/10 09:42:53;;;;;;;56.73;28.43;;;8.90;99.90;;;;;;5098387;28;20264;-79
2021/04/10 09:45:29;;;;;;;55.43;28.90;;;8.90;99.90;;;;;;5095777;28;20287;-79
2021/04/10 09:48:19;;;;;;;56.83;28.87;;;9.00;99.90;;;;;;5097222;28;20244;-77
2021/04/10 09:51:04;;;;;;;54.50;27.70;;;9.10;99.90;;;;;;5098515;28;20198;-78
2021/04/10 09:53:32;;;;;;;51.70;27.23;;;9.30;99.90;;;;;;5097317;28;20200;-78
2021/04/10 09:56:05;;;;;;;50.57;28.80;;;9.30;99.90;;;;;;5096679;28;20314;-78
2021/04/10 09:58:40;;;;;;;50.70;27.93;;;9.30;99.90;;;;;;5097214;28;20200;-83
2021/04/10 10:01:09;;;;;;;49.40;27.77;;;9.30;99.90;;;;;;5097060;28;20197;-79
2021/04/10 10:03:39;;;;;;;50.53;28.03;;;9.30;99.90;;;;;;5091404;28;20212;-78
2021/04/10 10:06:22;;;;;;;50.97;29.00;;;9.30;99.90;;;;;;5076822;28;20798;-81
2021/04/10 10:08:48;;;;;;;51.00;27.17;;;9.20;99.90;;;;;;5093827;28;20205;-78
2021/04/10 10:11:16;;;;;;;49.10;28.33;;;9.30;99.90;;;;;;5093561;28;20194;-83
2021/04/10 10:13:43;;;;;;;50.33;28.70;;;9.40;99.90;;;;;;5094425;28;20192;-83
2021/04/10 10:16:10;;;;;;;50.17;28.87;;;9.30;99.90;;;;;;5093593;28;20322;-79
2021/04/10 10:18:39;;;;;;;51.03;27.47;;;9.10;99.90;;;;;;5094203;28;20216;-81
2021/04/10 10:21:07;;;;;;;47.13;27.30;;;9.10;99.90;;;;;;5093378;28;20617;-80
2021/04/10 10:23:36;;;;;;;54.83;30.30;;;9.00;99.90;;;;;;5093721;28;20631;-79
2021/04/10 10:26:06;;;;;;;49.60;29.37;;;9.10;99.90;;;;;;5093552;28;20234;-82
2021/04/10 10:28:33;;;;;;;50.37;29.20;;;9.20;99.90;;;;;;5093663;28;20200;-84
2021/04/10 10:31:07;;;;;;;50.97;29.00;;;9.30;99.90;;;;;;5093675;28;20204;-80
2021/04/10 10:33:34;;;;;;;52.03;29.53;;;9.40;99.90;;;;;;5093025;28;20658;-78
2021/04/10 10:36:02;;;;;;;50.37;29.43;;;9.40;99.90;;;;;;5094282;28;20252;-80
2021/04/10 10:38:34;;;;;;;45.63;27.60;;;9.60;99.90;;;;;;5093483;28;20202;-79
2021/04/10 10:41:03;;;;;;;48.60;27.47;;;9.60;99.90;;;;;;5093388;28;20341;-79
2021/04/10 10:43:32;;;;;;;44.43;26.47;;;9.80;99.90;;;;;;5092810;28;20213;-78
2021/04/10 10:46:01;;;;;;;43.70;27.17;;;9.90;99.90;;;;;;5093185;28;20201;-80
2021/04/10 10:48:30;;;;;;;45.10;27.17;;;10.00;99.90;;;;;;5091580;28;20245;-82
2021/04/10 10:51:06;;;;;;;37.60;24.87;;;10.00;99.90;;;;;;5092696;28;20726;-79
2021/04/10 10:53:36;;;;;;;42.50;25.50;;;9.70;99.90;;;;;;5077102;28;20729;-81
2021/04/10 10:56:11;;;;;;;41.43;24.90;;;9.60;99.90;;;;;;5092600;28;20426;-78
2021/04/10 10:58:41;;;;;;;36.43;23.47;;;9.70;99.90;;;;;;5082381;28;20662;-78
2021/04/10 11:01:19;;;;;;;36.97;23.97;;;9.80;99.90;;;;;;5091497;28;20201;-79
2021/04/10 11:03:50;;;;;;;41.37;25.47;;;9.80;99.90;;;;;;5083741;28;20300;-78
2021/04/10 11:06:18;;;;;;;42.57;26.23;;;9.70;99.90;;;;;;5093355;28;20215;-80
2021/04/10 11:08:46;;;;;;;42.90;26.03;;;9.90;99.90;;;;;;5078286;28;20215;-80
2021/04/10 11:11:13;;;;;;;36.87;23.20;;;10.00;99.90;;;;;;5072352;28;20312;-79
2021/04/10 11:13:45;;;;;;;37.63;23.17;;;10.10;99.90;;;;;;5091485;28;20727;-78
2021/04/10 11:16:13;;;;;;;36.37;22.63;;;10.30;99.90;;;;;;5092547;28;20288;-82
2021/04/10 11:18:40;;;;;;;32.17;21.97;;;10.30;99.90;;;;;;5092782;28;20640;-82
2021/04/10 11:21:18;;;;;;;30.83;20.33;;;10.20;99.90;;;;;;5092599;28;20200;-77
2021/04/10 11:24:05;;;;;;;29.40;19.00;;;10.30;99.90;;;;;;5092801;28;20636;-82
2021/04/10 11:26:37;;;;;;;27.27;19.33;;;10.30;99.90;;;;;;5094247;28;20396;-79
2021/04/10 11:29:28;;;;;;;25.67;17.77;;;10.30;99.90;;;;;;5106693;28;20189;-78
2021/04/10 11:32:20;;;;;;;28.13;19.77;;;10.30;99.90;;;;;;5087143;28;20199;-78
2021/04/10 11:35:02;;;;;;;28.03;20.17;;;10.30;99.90;;;;;;5054015;28;20316;-80
2021/04/10 11:37:45;;;;;;;29.33;19.87;;;10.10;99.90;;;;;;5073804;28;20201;-79
2021/04/10 11:40:29;;;;;;;25.03;17.77;;;9.90;99.90;;;;;;5091099;28;20228;-77
2021/04/10 11:42:58;;;;;;;24.03;16.63;;;9.90;99.90;;;;;;5092501;28;20193;-79
2021/04/10 11:45:27;;;;;;;25.97;17.93;;;9.90;99.90;;;;;;5090724;28;20232;-79
2021/04/10 11:48:06;;;;;;;23.70;17.23;;;10.10;99.90;;;;;;5093482;28;20261;-80
2021/04/10 11:50:40;;;;;;;23.50;17.30;;;10.20;99.90;;;;;;5091379;28;20208;-80
2021/04/10 11:53:13;;;;;;;26.53;18.23;;;10.30;99.90;;;;;;5091485;28;20652;-80
2021/04/10 11:55:40;;;;;;;27.50;19.63;;;10.40;99.90;;;;;;5092848;28;20221;-78
2021/04/10 11:58:06;;;;;;;22.53;16.30;;;10.50;99.90;;;;;;5090862;28;20220;-80
2021/04/10 12:00:33;;;;;;;22.17;15.47;;;10.60;99.90;;;;;;5093047;28;20197;-78
2021/04/10 12:03:08;;;;;;;25.00;16.80;;;10.60;99.90;;;;;;5092546;28;20288;-78
2021/04/10 12:05:39;;;;;;;23.90;17.30;;;10.60;99.90;;;;;;5090431;28;20263;-81
2021/04/10 12:08:22;;;;;;;24.10;17.87;;;10.70;99.90;;;;;;5087102;28;20205;-80
2021/04/10 12:10:52;;;;;;;25.00;17.33;;;10.70;99.90;;;;;;5092230;28;20730;-82
2021/04/10 12:13:19;;;;;;;23.97;17.57;;;10.90;99.90;;;;;;5091473;28;20288;-79
2021/04/10 12:15:49;;;;;;;25.10;17.60;;;11.00;99.90;;;;;;5091876;28;20221;-78
2021/04/10 12:18:16;;;;;;;23.07;16.80;;;11.10;99.90;;;;;;5092637;28;20286;-78
2021/04/10 12:20:43;;;;;;;21.60;16.03;;;11.10;99.90;;;;;;5096836;28;20205;-78
2021/04/10 12:23:10;;;;;;;22.50;15.10;;;10.90;99.90;;;;;;5069996;28;20203;-78
2021/04/10 12:25:37;;;;;;;22.20;16.23;;;10.80;99.90;;;;;;5078363;28;20509;-80
2021/04/10 12:28:05;;;;;;;21.53;15.37;;;10.80;99.90;;;;;;5084987;28;20203;-78
2021/04/10 12:30:33;;;;;;;20.77;15.90;;;10.80;99.90;;;;;;5086846;28;20238;-78
2021/04/10 12:32:59;;;;;;;23.30;17.03;;;10.90;99.90;;;;;;5082743;28;20566;-79
2021/04/10 12:35:25;;;;;;;23.70;16.80;;;10.80;99.90;;;;;;5075105;28;20589;-79
2021/04/10 12:37:52;;;;;;;23.30;17.13;;;10.70;99.90;;;;;;5088601;28;20199;-79
2021/04/10 12:40:19;;;;;;;25.27;18.07;;;10.70;99.90;;;;;;5097130;28;20222;-78
2021/04/10 12:42:46;;;;;;;25.43;18.57;;;10.80;99.90;;;;;;5093404;28;20648;-79
2021/04/10 12:45:16;;;;;;;21.43;16.80;;;10.80;99.90;;;;;;5094494;28;20217;-82
2021/04/10 12:47:43;;;;;;;19.63;14.30;;;10.90;99.90;;;;;;5076275;28;20197;-80
2021/04/10 12:50:11;;;;;;;17.63;13.93;;;11.20;99.90;;;;;;5095070;28;20663;-79
2021/04/10 12:52:38;;;;;;;18.53;14.67;;;11.30;99.90;;;;;;5092272;28;20611;-79